sensor_id;sensor_type;location;lat;lon;timestamp;P1;durP1;ratioP1;P2;durP2;ratioP2
48993;SDS011;34804;49.214;12.276;2023-06-22T00:01:45;18.52;;;6.80;;
48993;SDS011;34804;49.214;12.276;2023-06-22T00:04:12;20.20;;;7.45;;
48993;SDS011;34804;49.214;12.276;2023-06-22T00:06:39;16.45;;;7.95;;
48993;SDS011;34804;49.214;12.276;2023-06-22T00:09:05;23.67;;;7.78;;
48993;SDS011;34804;49.214;12.276;2023-06-22T00:11:33;27.90;;;6.63;;
48993;SDS011;34804;49.214;12.276;2023-06-22T00:14:00;18.92;;;7.22;;
48993;SDS011;34804;49.214;12.276;2023-06-22T00:16:27;16.40;;;7.18;;
48993;SDS011;34804;49.214;12.276;2023-06-22T00:18:54;15.57;;;6.65;;
48993;SDS011;34804;49.214;12.276;2023-06-22T00:21:20;21.45;;;7.40;;
48993;SDS011;34804;49.214;12.276;2023-06-22T00:23:47;17.77;;;6.95;;
48993;SDS011;34804;49.214;12.276;2023-06-22T00:26:14;32.47;;;6.95;;
48993;SDS011;34804;49.214;12.276;2023-06-22T00:28:41;18.25;;;6.22;;
48993;SDS011;34804;49.214;12.276;2023-06-22T00:31:08;20.38;;;6.68;;
48993;SDS011;34804;49.214;12.276;2023-06-22T00:33:35;22.38;;;7.20;;
48993;SDS011;34804;49.214;12.276;2023-06-22T00:36:01;15.07;;;6.93;;
48993;SDS011;34804;49.214;12.276;2023-06-22T00:38:29;21.25;;;6.80;;
48993;SDS011;34804;49.214;12.276;2023-06-22T00:40:56;21.40;;;7.10;;
48993;SDS011;34804;49.214;12.276;2023-06-22T00:43:22;18.08;;;7.38;;
48993;SDS011;34804;49.214;12.276;2023-06-22T00:45:49;15.90;;;6.30;;
48993;SDS011;34804;49.214;12.276;2023-06-22T00:48:16;14.93;;;6.80;;
48993;SDS011;34804;49.214;12.276;2023-06-22T00:50:43;18.23;;;7.00;;
48993;SDS011;34804;49.214;12.276;2023-06-22T00:53:10;15.52;;;6.75;;
48993;SDS011;34804;49.214;12.276;2023-06-22T00:55:41;11.82;;;6.10;;
48993;SDS011;34804;49.214;12.276;2023-06-22T00:58:13;18.90;;;7.07;;
48993;SDS011;34804;49.214;12.276;2023-06-22T01:00:40;20.48;;;8.75;;
48993;SDS011;34804;49.214;12.276;2023-06-22T01:03:08;22.73;;;7.75;;
48993;SDS011;34804;49.214;12.276;2023-06-22T01:05:37;21.83;;;7.97;;
48993;SDS011;34804;49.214;12.276;2023-06-22T01:13:37;21.50;;;10.02;;
48993;SDS011;34804;49.214;12.276;2023-06-22T01:19:00;20.10;;;11.45;;
48993;SDS011;34804;49.214;12.276;2023-06-22T01:21:33;29.17;;;10.88;;
48993;SDS011;34804;49.214;12.276;2023-06-22T01:26:57;20.95;;;10.30;;
48993;SDS011;34804;49.214;12.276;2023-06-22T01:29:50;15.32;;;8.40;;
48993;SDS011;34804;49.214;12.276;2023-06-22T01:32:18;17.30;;;8.38;;
48993;SDS011;34804;49.214;12.276;2023-06-22T01:34:46;19.48;;;9.82;;
48993;SDS011;34804;49.214;12.276;2023-06-22T01:37:14;17.73;;;9.23;;
48993;SDS011;34804;49.214;12.276;2023-06-22T01:39:42;17.00;;;8.90;;
48993;SDS011;34804;49.214;12.276;2023-06-22T01:42:09;17.52;;;9.07;;
48993;SDS011;34804;49.214;12.276;2023-06-22T01:44:37;24.88;;;10.02;;
48993;SDS011;34804;49.214;12.276;2023-06-22T01:47:04;30.38;;;10.45;;
48993;SDS011;34804;49.214;12.276;2023-06-22T01:49:32;25.60;;;9.65;;
48993;SDS011;34804;49.214;12.276;2023-06-22T01:51:59;32.33;;;11.10;;
48993;SDS011;34804;49.214;12.276;2023-06-22T01:54:26;39.58;;;10.95;;
48993;SDS011;34804;49.214;12.276;2023-06-22T01:56:53;34.47;;;10.95;;
48993;SDS011;34804;49.214;12.276;2023-06-22T01:59:24;44.13;;;12.63;;
48993;SDS011;34804;49.214;12.276;2023-06-22T02:02:02;43.58;;;11.82;;
48993;SDS011;34804;49.214;12.276;2023-06-22T02:04:34;26.25;;;9.57;;
48993;SDS011;34804;49.214;12.276;2023-06-22T02:07:09;21.63;;;9.45;;
48993;SDS011;34804;49.214;12.276;2023-06-22T02:09:38;15.80;;;8.30;;
48993;SDS011;34804;49.214;12.276;2023-06-22T02:12:13;36.55;;;10.55;;
48993;SDS011;34804;49.214;12.276;2023-06-22T02:14:45;28.15;;;9.43;;
48993;SDS011;34804;49.214;12.276;2023-06-22T02:17:17;28.20;;;8.98;;
48993;SDS011;34804;49.214;12.276;2023-06-22T02:19:44;24.63;;;9.32;;
48993;SDS011;34804;49.214;12.276;2023-06-22T02:22:11;26.40;;;9.07;;
48993;SDS011;34804;49.214;12.276;2023-06-22T02:24:41;18.55;;;8.25;;
48993;SDS011;34804;49.214;12.276;2023-06-22T02:27:08;32.85;;;9.40;;
48993;SDS011;34804;49.214;12.276;2023-06-22T02:29:35;24.77;;;7.85;;
48993;SDS011;34804;49.214;12.276;2023-06-22T02:32:02;14.20;;;7.45;;
48993;SDS011;34804;49.214;12.276;2023-06-22T02:34:31;17.77;;;7.95;;
48993;SDS011;34804;49.214;12.276;2023-06-22T02:37:00;13.65;;;6.65;;
48993;SDS011;34804;49.214;12.276;2023-06-22T02:39:28;9.75;;;5.82;;
48993;SDS011;34804;49.214;12.276;2023-06-22T02:41:55;12.40;;;7.65;;
48993;SDS011;34804;49.214;12.276;2023-06-22T02:44:22;15.75;;;8.60;;
48993;SDS011;34804;49.214;12.276;2023-06-22T02:46:49;26.27;;;8.10;;
48993;SDS011;34804;49.214;12.276;2023-06-22T02:49:16;15.77;;;7.95;;
48993;SDS011;34804;49.214;12.276;2023-06-22T02:51:47;23.15;;;9.80;;
48993;SDS011;34804;49.214;12.276;2023-06-22T02:54:15;18.88;;;9.77;;
48993;SDS011;34804;49.214;12.276;2023-06-22T02:56:43;25.08;;;11.25;;
48993;SDS011;34804;49.214;12.276;2023-06-22T02:59:11;23.33;;;10.38;;
48993;SDS011;34804;49.214;12.276;2023-06-22T03:01:38;20.25;;;10.45;;
48993;SDS011;34804;49.214;12.276;2023-06-22T03:04:07;28.20;;;11.00;;
48993;SDS011;34804;49.214;12.276;2023-06-22T03:06:34;26.98;;;11.40;;
48993;SDS011;34804;49.214;12.276;2023-06-22T03:09:03;25.85;;;10.27;;
48993;SDS011;34804;49.214;12.276;2023-06-22T03:11:32;28.58;;;11.65;;
48993;SDS011;34804;49.214;12.276;2023-06-22T03:14:00;25.77;;;11.88;;
48993;SDS011;34804;49.214;12.276;2023-06-22T03:16:27;31.20;;;12.73;;
48993;SDS011;34804;49.214;12.276;2023-06-22T03:18:55;23.00;;;13.25;;
48993;SDS011;34804;49.214;12.276;2023-06-22T03:21:22;30.35;;;14.20;;
48993;SDS011;34804;49.214;12.276;2023-06-22T03:23:50;29.63;;;14.40;;
48993;SDS011;34804;49.214;12.276;2023-06-22T03:26:17;30.30;;;14.30;;
48993;SDS011;34804;49.214;12.276;2023-06-22T03:28:45;42.72;;;15.48;;
48993;SDS011;34804;49.214;12.276;2023-06-22T03:31:11;29.77;;;16.02;;
48993;SDS011;34804;49.214;12.276;2023-06-22T03:33:38;28.00;;;14.05;;
48993;SDS011;34804;49.214;12.276;2023-06-22T03:36:05;32.60;;;15.40;;
48993;SDS011;34804;49.214;12.276;2023-06-22T03:38:32;31.77;;;14.15;;
48993;SDS011;34804;49.214;12.276;2023-06-22T03:40:59;39.38;;;14.90;;
48993;SDS011;34804;49.214;12.276;2023-06-22T03:43:26;32.53;;;14.40;;
48993;SDS011;34804;49.214;12.276;2023-06-22T03:45:53;52.78;;;16.17;;
48993;SDS011;34804;49.214;12.276;2023-06-22T03:48:20;37.40;;;15.00;;
48993;SDS011;34804;49.214;12.276;2023-06-22T03:50:46;31.27;;;14.23;;
48993;SDS011;34804;49.214;12.276;2023-06-22T03:53:13;29.05;;;14.77;;
48993;SDS011;34804;49.214;12.276;2023-06-22T03:55:47;40.67;;;15.35;;
48993;SDS011;34804;49.214;12.276;2023-06-22T03:58:16;33.83;;;13.85;;
48993;SDS011;34804;49.214;12.276;2023-06-22T04:00:54;31.52;;;14.90;;
48993;SDS011;34804;49.214;12.276;2023-06-22T04:03:21;37.65;;;14.45;;
48993;SDS011;34804;49.214;12.276;2023-06-22T04:05:48;33.58;;;14.23;;
48993;SDS011;34804;49.214;12.276;2023-06-22T04:08:15;35.20;;;13.80;;
48993;SDS011;34804;49.214;12.276;2023-06-22T04:10:42;22.98;;;12.95;;
48993;SDS011;34804;49.214;12.276;2023-06-22T04:13:09;20.45;;;13.00;;
48993;SDS011;34804;49.214;12.276;2023-06-22T04:15:36;19.10;;;13.32;;
48993;SDS011;34804;49.214;12.276;2023-06-22T04:18:03;23.63;;;14.73;;
48993;SDS011;34804;49.214;12.276;2023-06-22T04:20:31;19.95;;;13.50;;
48993;SDS011;34804;49.214;12.276;2023-06-22T04:22:59;20.25;;;12.93;;
48993;SDS011;34804;49.214;12.276;2023-06-22T04:25:26;20.60;;;12.25;;
48993;SDS011;34804;49.214;12.276;2023-06-22T04:27:53;19.27;;;12.35;;
48993;SDS011;34804;49.214;12.276;2023-06-22T04:30:19;17.42;;;12.70;;
48993;SDS011;34804;49.214;12.276;2023-06-22T04:32:46;19.10;;;12.88;;
48993;SDS011;34804;49.214;12.276;2023-06-22T04:35:23;19.75;;;11.50;;
48993;SDS011;34804;49.214;12.276;2023-06-22T04:37:50;15.85;;;11.18;;
48993;SDS011;34804;49.214;12.276;2023-06-22T04:40:21;16.05;;;10.77;;
48993;SDS011;34804;49.214;12.276;2023-06-22T04:42:49;14.52;;;10.48;;
48993;SDS011;34804;49.214;12.276;2023-06-22T04:45:20;14.70;;;10.23;;
48993;SDS011;34804;49.214;12.276;2023-06-22T04:47:47;14.70;;;10.75;;
48993;SDS011;34804;49.214;12.276;2023-06-22T04:50:14;17.77;;;11.63;;
48993;SDS011;34804;49.214;12.276;2023-06-22T04:52:41;15.73;;;11.10;;
48993;SDS011;34804;49.214;12.276;2023-06-22T04:55:08;17.63;;;11.35;;
48993;SDS011;34804;49.214;12.276;2023-06-22T04:57:35;21.52;;;11.68;;
48993;SDS011;34804;49.214;12.276;2023-06-22T05:00:05;18.52;;;12.00;;
48993;SDS011;34804;49.214;12.276;2023-06-22T05:02:51;17.13;;;11.23;;
48993;SDS011;34804;49.214;12.276;2023-06-22T05:05:24;17.13;;;10.90;;
48993;SDS011;34804;49.214;12.276;2023-06-22T05:07:51;16.45;;;11.75;;
48993;SDS011;34804;49.214;12.276;2023-06-22T05:10:26;16.55;;;11.50;;
48993;SDS011;34804;49.214;12.276;2023-06-22T05:12:53;18.52;;;12.20;;
48993;SDS011;34804;49.214;12.276;2023-06-22T05:15:20;14.90;;;10.80;;
48993;SDS011;34804;49.214;12.276;2023-06-22T05:17:48;16.55;;;11.25;;
48993;SDS011;34804;49.214;12.276;2023-06-22T05:20:15;14.02;;;10.57;;
48993;SDS011;34804;49.214;12.276;2023-06-22T05:22:44;15.40;;;11.00;;
48993;SDS011;34804;49.214;12.276;2023-06-22T05:25:11;15.52;;;10.45;;
48993;SDS011;34804;49.214;12.276;2023-06-22T05:27:39;15.55;;;11.60;;
48993;SDS011;34804;49.214;12.276;2023-06-22T05:30:06;17.02;;;13.48;;
48993;SDS011;34804;49.214;12.276;2023-06-22T05:32:34;19.75;;;14.10;;
48993;SDS011;34804;49.214;12.276;2023-06-22T05:35:02;20.42;;;14.55;;
48993;SDS011;34804;49.214;12.276;2023-06-22T05:37:29;20.48;;;14.98;;
48993;SDS011;34804;49.214;12.276;2023-06-22T05:39:56;23.33;;;15.48;;
48993;SDS011;34804;49.214;12.276;2023-06-22T05:42:23;18.90;;;13.45;;
48993;SDS011;34804;49.214;12.276;2023-06-22T05:44:52;20.23;;;14.98;;
48993;SDS011;34804;49.214;12.276;2023-06-22T05:47:19;20.73;;;14.10;;
48993;SDS011;34804;49.214;12.276;2023-06-22T05:49:47;20.63;;;14.75;;
48993;SDS011;34804;49.214;12.276;2023-06-22T05:52:13;23.98;;;14.45;;
48993;SDS011;34804;49.214;12.276;2023-06-22T05:54:40;24.10;;;14.82;;
48993;SDS011;34804;49.214;12.276;2023-06-22T05:57:08;26.90;;;15.70;;
48993;SDS011;34804;49.214;12.276;2023-06-22T05:59:34;27.08;;;15.50;;
48993;SDS011;34804;49.214;12.276;2023-06-22T06:02:01;26.85;;;14.65;;
48993;SDS011;34804;49.214;12.276;2023-06-22T06:04:28;22.38;;;13.48;;
48993;SDS011;34804;49.214;12.276;2023-06-22T06:06:55;17.77;;;12.68;;
48993;SDS011;34804;49.214;12.276;2023-06-22T06:09:22;20.25;;;12.38;;
48993;SDS011;34804;49.214;12.276;2023-06-22T06:11:49;17.10;;;11.27;;
48993;SDS011;34804;49.214;12.276;2023-06-22T06:14:16;17.00;;;12.20;;
48993;SDS011;34804;49.214;12.276;2023-06-22T06:16:43;18.65;;;11.27;;
48993;SDS011;34804;49.214;12.276;2023-06-22T06:19:10;14.45;;;10.65;;
48993;SDS011;34804;49.214;12.276;2023-06-22T06:21:37;14.50;;;9.55;;
48993;SDS011;34804;49.214;12.276;2023-06-22T06:24:04;16.95;;;10.38;;
48993;SDS011;34804;49.214;12.276;2023-06-22T06:26:31;13.07;;;9.40;;
48993;SDS011;34804;49.214;12.276;2023-06-22T06:28:59;15.27;;;9.88;;
48993;SDS011;34804;49.214;12.276;2023-06-22T06:31:27;13.38;;;9.68;;
48993;SDS011;34804;49.214;12.276;2023-06-22T06:33:55;12.40;;;8.88;;
48993;SDS011;34804;49.214;12.276;2023-06-22T06:36:22;12.27;;;9.38;;
48993;SDS011;34804;49.214;12.276;2023-06-22T06:38:48;12.90;;;8.55;;
48993;SDS011;34804;49.214;12.276;2023-06-22T06:41:15;12.93;;;8.60;;
48993;SDS011;34804;49.214;12.276;2023-06-22T06:43:43;12.30;;;7.85;;
48993;SDS011;34804;49.214;12.276;2023-06-22T06:46:09;12.85;;;9.00;;
48993;SDS011;34804;49.214;12.276;2023-06-22T06:48:37;11.18;;;7.55;;
48993;SDS011;34804;49.214;12.276;2023-06-22T06:51:05;10.57;;;7.50;;
48993;SDS011;34804;49.214;12.276;2023-06-22T06:53:32;15.10;;;7.47;;
48993;SDS011;34804;49.214;12.276;2023-06-22T06:55:59;14.13;;;7.70;;
48993;SDS011;34804;49.214;12.276;2023-06-22T06:58:26;11.65;;;7.15;;
48993;SDS011;34804;49.214;12.276;2023-06-22T07:00:53;12.20;;;7.72;;
48993;SDS011;34804;49.214;12.276;2023-06-22T07:03:19;11.75;;;8.00;;
48993;SDS011;34804;49.214;12.276;2023-06-22T07:05:46;11.82;;;7.40;;
48993;SDS011;34804;49.214;12.276;2023-06-22T07:08:14;10.93;;;6.95;;
48993;SDS011;34804;49.214;12.276;2023-06-22T07:10:41;11.45;;;6.75;;
48993;SDS011;34804;49.214;12.276;2023-06-22T07:13:08;13.43;;;6.72;;
48993;SDS011;34804;49.214;12.276;2023-06-22T07:15:35;10.63;;;6.72;;
48993;SDS011;34804;49.214;12.276;2023-06-22T07:18:02;10.80;;;6.55;;
48993;SDS011;34804;49.214;12.276;2023-06-22T07:20:29;10.98;;;6.53;;
48993;SDS011;34804;49.214;12.276;2023-06-22T07:22:56;9.85;;;6.38;;
48993;SDS011;34804;49.214;12.276;2023-06-22T07:25:24;9.50;;;6.45;;
48993;SDS011;34804;49.214;12.276;2023-06-22T07:27:58;9.63;;;6.50;;
48993;SDS011;34804;49.214;12.276;2023-06-22T07:30:25;9.57;;;6.13;;
48993;SDS011;34804;49.214;12.276;2023-06-22T07:32:53;8.57;;;6.47;;
48993;SDS011;34804;49.214;12.276;2023-06-22T07:35:20;11.80;;;6.47;;
48993;SDS011;34804;49.214;12.276;2023-06-22T07:37:47;8.30;;;5.95;;
48993;SDS011;34804;49.214;12.276;2023-06-22T07:40:14;11.55;;;6.18;;
48993;SDS011;34804;49.214;12.276;2023-06-22T07:42:41;10.48;;;5.93;;
48993;SDS011;34804;49.214;12.276;2023-06-22T07:45:08;12.65;;;5.90;;
48993;SDS011;34804;49.214;12.276;2023-06-22T07:47:35;8.70;;;5.32;;
48993;SDS011;34804;49.214;12.276;2023-06-22T07:50:03;13.13;;;6.45;;
48993;SDS011;34804;49.214;12.276;2023-06-22T07:52:30;9.27;;;6.13;;
48993;SDS011;34804;49.214;12.276;2023-06-22T07:54:58;10.57;;;6.25;;
48993;SDS011;34804;49.214;12.276;2023-06-22T07:57:25;12.63;;;6.35;;
48993;SDS011;34804;49.214;12.276;2023-06-22T08:00:03;9.40;;;5.50;;
48993;SDS011;34804;49.214;12.276;2023-06-22T08:02:42;9.90;;;6.28;;
48993;SDS011;34804;49.214;12.276;2023-06-22T08:05:10;10.52;;;5.47;;
48993;SDS011;34804;49.214;12.276;2023-06-22T08:07:48;8.98;;;5.35;;
48993;SDS011;34804;49.214;12.276;2023-06-22T08:10:15;11.82;;;6.38;;
48993;SDS011;34804;49.214;12.276;2023-06-22T08:12:42;9.85;;;5.80;;
48993;SDS011;34804;49.214;12.276;2023-06-22T08:15:09;8.45;;;6.00;;
48993;SDS011;34804;49.214;12.276;2023-06-22T08:17:37;9.07;;;6.07;;
48993;SDS011;34804;49.214;12.276;2023-06-22T08:20:06;9.70;;;6.03;;
48993;SDS011;34804;49.214;12.276;2023-06-22T08:25:06;11.75;;;4.80;;
48993;SDS011;34804;49.214;12.276;2023-06-22T08:27:34;7.97;;;5.13;;
48993;SDS011;34804;49.214;12.276;2023-06-22T08:30:02;9.68;;;5.75;;
48993;SDS011;34804;49.214;12.276;2023-06-22T08:32:29;10.43;;;5.22;;
48993;SDS011;34804;49.214;12.276;2023-06-22T08:34:59;9.07;;;5.60;;
48993;SDS011;34804;49.214;12.276;2023-06-22T08:37:26;8.82;;;5.05;;
48993;SDS011;34804;49.214;12.276;2023-06-22T08:39:58;11.77;;;5.75;;
48993;SDS011;34804;49.214;12.276;2023-06-22T08:42:26;12.68;;;5.13;;
48993;SDS011;34804;49.214;12.276;2023-06-22T08:44:53;9.98;;;5.20;;
48993;SDS011;34804;49.214;12.276;2023-06-22T08:47:20;10.00;;;5.03;;
48993;SDS011;34804;49.214;12.276;2023-06-22T08:49:48;9.50;;;5.20;;
48993;SDS011;34804;49.214;12.276;2023-06-22T08:52:15;12.10;;;5.53;;
48993;SDS011;34804;49.214;12.276;2023-06-22T08:54:43;8.73;;;4.93;;
48993;SDS011;34804;49.214;12.276;2023-06-22T08:57:10;9.35;;;5.15;;
48993;SDS011;34804;49.214;12.276;2023-06-22T08:59:37;9.95;;;5.85;;
48993;SDS011;34804;49.214;12.276;2023-06-22T09:02:04;9.98;;;5.68;;
48993;SDS011;34804;49.214;12.276;2023-06-22T09:04:31;8.27;;;5.45;;
48993;SDS011;34804;49.214;12.276;2023-06-22T09:07:01;9.18;;;5.75;;
48993;SDS011;34804;49.214;12.276;2023-06-22T09:09:30;11.65;;;5.30;;
48993;SDS011;34804;49.214;12.276;2023-06-22T09:11:57;9.57;;;5.55;;
48993;SDS011;34804;49.214;12.276;2023-06-22T09:14:24;11.43;;;5.40;;
48993;SDS011;34804;49.214;12.276;2023-06-22T09:16:56;12.27;;;5.63;;
48993;SDS011;34804;49.214;12.276;2023-06-22T09:19:27;9.02;;;4.85;;
48993;SDS011;34804;49.214;12.276;2023-06-22T09:21:54;10.98;;;5.88;;
48993;SDS011;34804;49.214;12.276;2023-06-22T09:24:21;10.27;;;5.22;;
48993;SDS011;34804;49.214;12.276;2023-06-22T09:26:48;12.93;;;5.63;;
48993;SDS011;34804;49.214;12.276;2023-06-22T09:29:14;11.55;;;5.20;;
48993;SDS011;34804;49.214;12.276;2023-06-22T09:31:41;8.15;;;4.70;;
48993;SDS011;34804;49.214;12.276;2023-06-22T09:34:08;12.45;;;5.30;;
48993;SDS011;34804;49.214;12.276;2023-06-22T09:36:35;12.35;;;5.55;;
48993;SDS011;34804;49.214;12.276;2023-06-22T09:39:03;9.57;;;5.13;;
48993;SDS011;34804;49.214;12.276;2023-06-22T09:41:32;11.70;;;6.00;;
48993;SDS011;34804;49.214;12.276;2023-06-22T09:43:59;12.95;;;5.55;;
48993;SDS011;34804;49.214;12.276;2023-06-22T09:46:26;9.23;;;4.75;;
48993;SDS011;34804;49.214;12.276;2023-06-22T09:48:54;10.88;;;5.57;;
48993;SDS011;34804;49.214;12.276;2023-06-22T09:51:22;14.25;;;6.28;;
48993;SDS011;34804;49.214;12.276;2023-06-22T09:53:50;8.65;;;5.47;;
48993;SDS011;34804;49.214;12.276;2023-06-22T09:56:17;11.55;;;5.30;;
48993;SDS011;34804;49.214;12.276;2023-06-22T09:58:45;9.88;;;5.55;;
48993;SDS011;34804;49.214;12.276;2023-06-22T10:01:13;9.60;;;5.28;;
48993;SDS011;34804;49.214;12.276;2023-06-22T10:03:43;9.95;;;5.35;;
48993;SDS011;34804;49.214;12.276;2023-06-22T10:06:10;10.80;;;5.38;;
48993;SDS011;34804;49.214;12.276;2023-06-22T10:08:37;13.25;;;5.07;;
48993;SDS011;34804;49.214;12.276;2023-06-22T10:11:09;12.00;;;5.50;;
48993;SDS011;34804;49.214;12.276;2023-06-22T10:13:36;10.80;;;5.15;;
48993;SDS011;34804;49.214;12.276;2023-06-22T10:16:03;8.23;;;4.82;;
48993;SDS011;34804;49.214;12.276;2023-06-22T10:18:30;9.75;;;4.85;;
48993;SDS011;34804;49.214;12.276;2023-06-22T10:20:57;10.68;;;5.10;;
48993;SDS011;34804;49.214;12.276;2023-06-22T10:23:24;13.75;;;5.00;;
48993;SDS011;34804;49.214;12.276;2023-06-22T10:25:50;9.00;;;4.70;;
48993;SDS011;34804;49.214;12.276;2023-06-22T10:28:17;10.70;;;4.63;;
48993;SDS011;34804;49.214;12.276;2023-06-22T10:30:44;8.55;;;4.43;;
48993;SDS011;34804;49.214;12.276;2023-06-22T10:33:11;8.95;;;4.63;;
48993;SDS011;34804;49.214;12.276;2023-06-22T10:35:39;11.63;;;4.47;;
48993;SDS011;34804;49.214;12.276;2023-06-22T10:38:06;11.15;;;5.00;;
48993;SDS011;34804;49.214;12.276;2023-06-22T10:40:33;10.07;;;5.10;;
48993;SDS011;34804;49.214;12.276;2023-06-22T10:43:00;10.52;;;4.63;;
48993;SDS011;34804;49.214;12.276;2023-06-22T10:45:27;8.98;;;4.75;;
48993;SDS011;34804;49.214;12.276;2023-06-22T10:47:55;8.35;;;4.43;;
48993;SDS011;34804;49.214;12.276;2023-06-22T10:50:22;10.27;;;4.45;;
48993;SDS011;34804;49.214;12.276;2023-06-22T10:52:51;11.30;;;4.75;;
48993;SDS011;34804;49.214;12.276;2023-06-22T10:55:17;11.35;;;5.28;;
48993;SDS011;34804;49.214;12.276;2023-06-22T10:57:44;9.00;;;4.80;;
48993;SDS011;34804;49.214;12.276;2023-06-22T11:00:13;9.13;;;4.80;;
48993;SDS011;34804;49.214;12.276;2023-06-22T11:02:42;8.52;;;4.47;;
48993;SDS011;34804;49.214;12.276;2023-06-22T11:05:09;8.65;;;4.88;;
48993;SDS011;34804;49.214;12.276;2023-06-22T11:07:37;15.35;;;4.85;;
48993;SDS011;34804;49.214;12.276;2023-06-22T11:10:09;10.90;;;4.65;;
48993;SDS011;34804;49.214;12.276;2023-06-22T11:12:37;7.85;;;4.85;;
48993;SDS011;34804;49.214;12.276;2023-06-22T11:15:04;10.10;;;5.13;;
48993;SDS011;34804;49.214;12.276;2023-06-22T11:17:31;11.35;;;5.30;;
48993;SDS011;34804;49.214;12.276;2023-06-22T11:19:58;11.25;;;5.18;;
48993;SDS011;34804;49.214;12.276;2023-06-22T11:22:26;11.00;;;5.30;;
48993;SDS011;34804;49.214;12.276;2023-06-22T11:24:53;8.77;;;5.43;;
48993;SDS011;34804;49.214;12.276;2023-06-22T11:27:20;9.85;;;5.05;;
48993;SDS011;34804;49.214;12.276;2023-06-22T11:29:47;12.35;;;5.15;;
48993;SDS011;34804;49.214;12.276;2023-06-22T11:32:14;10.63;;;5.35;;
48993;SDS011;34804;49.214;12.276;2023-06-22T11:34:41;9.77;;;5.53;;
48993;SDS011;34804;49.214;12.276;2023-06-22T11:37:08;10.70;;;5.32;;
48993;SDS011;34804;49.214;12.276;2023-06-22T11:39:35;9.93;;;5.40;;
48993;SDS011;34804;49.214;12.276;2023-06-22T11:42:08;7.95;;;4.80;;
48993;SDS011;34804;49.214;12.276;2023-06-22T11:44:35;16.05;;;5.55;;
48993;SDS011;34804;49.214;12.276;2023-06-22T11:47:02;14.57;;;5.50;;
48993;SDS011;34804;49.214;12.276;2023-06-22T11:49:30;8.90;;;5.53;;
48993;SDS011;34804;49.214;12.276;2023-06-22T11:51:57;12.38;;;5.85;;
48993;SDS011;34804;49.214;12.276;2023-06-22T11:54:24;10.90;;;5.28;;
48993;SDS011;34804;49.214;12.276;2023-06-22T11:56:51;11.65;;;5.25;;
48993;SDS011;34804;49.214;12.276;2023-06-22T11:59:18;12.55;;;5.32;;
48993;SDS011;34804;49.214;12.276;2023-06-22T12:01:45;11.43;;;5.80;;
48993;SDS011;34804;49.214;12.276;2023-06-22T12:04:12;8.68;;;5.18;;
48993;SDS011;34804;49.214;12.276;2023-06-22T12:06:40;9.80;;;5.32;;
48993;SDS011;34804;49.214;12.276;2023-06-22T12:09:09;9.73;;;5.60;;
48993;SDS011;34804;49.214;12.276;2023-06-22T12:11:36;11.98;;;5.35;;
48993;SDS011;34804;49.214;12.276;2023-06-22T12:14:03;11.15;;;5.32;;
48993;SDS011;34804;49.214;12.276;2023-06-22T12:16:30;9.73;;;5.35;;
48993;SDS011;34804;49.214;12.276;2023-06-22T12:18:57;11.45;;;5.70;;
48993;SDS011;34804;49.214;12.276;2023-06-22T12:21:24;14.20;;;5.93;;
48993;SDS011;34804;49.214;12.276;2023-06-22T12:23:51;11.55;;;5.82;;
48993;SDS011;34804;49.214;12.276;2023-06-22T12:26:18;12.10;;;5.55;;
48993;SDS011;34804;49.214;12.276;2023-06-22T12:28:44;12.70;;;5.72;;
48993;SDS011;34804;49.214;12.276;2023-06-22T12:31:11;10.32;;;5.78;;
48993;SDS011;34804;49.214;12.276;2023-06-22T12:33:39;10.35;;;5.25;;
48993;SDS011;34804;49.214;12.276;2023-06-22T12:36:06;11.50;;;5.90;;
48993;SDS011;34804;49.214;12.276;2023-06-22T12:38:32;11.57;;;5.22;;
48993;SDS011;34804;49.214;12.276;2023-06-22T12:41:00;14.18;;;5.18;;
48993;SDS011;34804;49.214;12.276;2023-06-22T12:43:27;11.13;;;5.65;;
48993;SDS011;34804;49.214;12.276;2023-06-22T12:45:53;9.77;;;5.45;;
48993;SDS011;34804;49.214;12.276;2023-06-22T12:48:21;11.70;;;5.13;;
48993;SDS011;34804;49.214;12.276;2023-06-22T12:50:49;12.32;;;4.82;;
48993;SDS011;34804;49.214;12.276;2023-06-22T12:53:15;11.73;;;4.72;;
48993;SDS011;34804;49.214;12.276;2023-06-22T12:55:42;17.50;;;5.57;;
48993;SDS011;34804;49.214;12.276;2023-06-22T12:58:09;12.13;;;5.07;;
48993;SDS011;34804;49.214;12.276;2023-06-22T13:00:36;7.97;;;5.28;;
48993;SDS011;34804;49.214;12.276;2023-06-22T13:03:03;8.80;;;4.95;;
48993;SDS011;34804;49.214;12.276;2023-06-22T13:05:30;13.30;;;6.03;;
48993;SDS011;34804;49.214;12.276;2023-06-22T13:07:57;13.82;;;5.28;;
48993;SDS011;34804;49.214;12.276;2023-06-22T13:10:24;12.60;;;5.18;;
48993;SDS011;34804;49.214;12.276;2023-06-22T13:12:51;16.10;;;5.15;;
48993;SDS011;34804;49.214;12.276;2023-06-22T13:15:21;13.23;;;5.10;;
48993;SDS011;34804;49.214;12.276;2023-06-22T13:17:47;12.10;;;5.43;;
48993;SDS011;34804;49.214;12.276;2023-06-22T13:20:14;9.60;;;5.38;;
48993;SDS011;34804;49.214;12.276;2023-06-22T13:22:41;13.30;;;5.55;;
48993;SDS011;34804;49.214;12.276;2023-06-22T13:25:10;11.75;;;5.53;;
48993;SDS011;34804;49.214;12.276;2023-06-22T13:27:41;14.45;;;5.63;;
48993;SDS011;34804;49.214;12.276;2023-06-22T13:30:08;10.02;;;5.03;;
48993;SDS011;34804;49.214;12.276;2023-06-22T13:32:40;11.43;;;4.82;;
48993;SDS011;34804;49.214;12.276;2023-06-22T13:35:09;12.50;;;5.28;;
48993;SDS011;34804;49.214;12.276;2023-06-22T13:37:36;11.55;;;5.60;;
48993;SDS011;34804;49.214;12.276;2023-06-22T13:40:07;12.38;;;5.07;;
48993;SDS011;34804;49.214;12.276;2023-06-22T13:42:34;12.43;;;5.47;;
48993;SDS011;34804;49.214;12.276;2023-06-22T13:45:01;10.63;;;5.43;;
48993;SDS011;34804;49.214;12.276;2023-06-22T13:47:29;12.77;;;5.15;;
48993;SDS011;34804;49.214;12.276;2023-06-22T13:49:57;11.52;;;5.80;;
48993;SDS011;34804;49.214;12.276;2023-06-22T13:52:24;13.43;;;5.85;;
48993;SDS011;34804;49.214;12.276;2023-06-22T13:54:51;12.23;;;5.07;;
48993;SDS011;34804;49.214;12.276;2023-06-22T13:57:18;10.70;;;5.30;;
48993;SDS011;34804;49.214;12.276;2023-06-22T13:59:45;10.95;;;5.47;;
48993;SDS011;34804;49.214;12.276;2023-06-22T14:02:12;9.63;;;5.45;;
48993;SDS011;34804;49.214;12.276;2023-06-22T14:04:40;11.07;;;5.60;;
48993;SDS011;34804;49.214;12.276;2023-06-22T14:07:06;10.77;;;5.85;;
48993;SDS011;34804;49.214;12.276;2023-06-22T14:09:33;11.48;;;5.28;;
48993;SDS011;34804;49.214;12.276;2023-06-22T14:12:04;12.10;;;5.72;;
48993;SDS011;34804;49.214;12.276;2023-06-22T14:14:32;9.32;;;5.43;;
48993;SDS011;34804;49.214;12.276;2023-06-22T14:17:00;10.23;;;5.07;;
48993;SDS011;34804;49.214;12.276;2023-06-22T14:19:26;13.80;;;5.15;;
48993;SDS011;34804;49.214;12.276;2023-06-22T14:21:53;13.43;;;6.18;;
48993;SDS011;34804;49.214;12.276;2023-06-22T14:24:20;10.68;;;5.40;;
48993;SDS011;34804;49.214;12.276;2023-06-22T14:26:50;15.13;;;6.25;;
48993;SDS011;34804;49.214;12.276;2023-06-22T14:29:17;9.95;;;5.13;;
48993;SDS011;34804;49.214;12.276;2023-06-22T14:31:47;8.98;;;5.90;;
48993;SDS011;34804;49.214;12.276;2023-06-22T14:34:15;15.80;;;5.82;;
48993;SDS011;34804;49.214;12.276;2023-06-22T14:36:42;9.65;;;5.30;;
48993;SDS011;34804;49.214;12.276;2023-06-22T14:39:09;10.23;;;5.10;;